Wells River, VT (05081)

4:04 AM EDT on September 03, 2014 (GMT -0400)
River Meadow campground | Change Station
CLOSE
Current Station
Personal Weather Station
Location: North Haverhill, NH
Elevation: 445 ft
Nearby Weather Stations

Elev 445 ft 44.10 °N, 72.03 °W | Updated 12 seconds ago

Overcast
Overcast
64.4 °F
Feels Like 64.4 °F
N
0.0
Wind Variable Wind from East
Gusts 2.0 mph

Today
High -- | Low -- °F
--% Chance of Precip.
Yesterday
High -- | Low -- °F
Precip. -- in
6:13 AM 7:20 PM
First Quarter, 60% visible
Pressure 29.85 in
Visibility 10.0 miles
Clouds Few 2400 ft
Mostly Cloudy 2900 ft
Overcast 3900 ft
Dew Point 64 °F
Humidity 99%
Rainfall 0.00 in
Snow Depth Not available.
UV 0 out of 12
Pollen 5.50 out of 12
Ozone Good
PM2.5 Good
Flu Activity Not available.
METAR KMPV 030751Z AUTO 32004KT 10SM FEW024 BKN029 OVC039 17/16 A2986 RMK AO2 SLP106 T01670156

More Conditions Fewer Conditions

Pressure 29.85 in
Visibility 10.0 miles
Clouds Few 2400 ft
Mostly Cloudy 2900 ft
Overcast 3900 ft
Dew Point 64 °F
Humidity 99%
Rainfall 0.00 in
Snow Depth Not available.
UV 0 out of 12
Pollen 5.50 out of 12
Ozone Good
PM2.5 Good
Flu Activity Not available.
METAR KMPV 030751Z AUTO 32004KT 10SM FEW024 BKN029 OVC039 17/16 A2986 RMK AO2 SLP106 T01670156

More Conditions Fewer Conditions

10-Day Weather Forecast

Almanac

Astronomy

Sep. 03, 2014 Rise Set
Actual Time 6:13 AM EDT 7:20 PM EDT
Civil Twilight 5:43 AM EDT 7:50 PM EDT
Nautical Twilight 5:08 AM EDT 8:25 PM EDT
Astronomical Twilight 4:30 AM EDT 9:03 PM EDT
Moon 3:06 PM EDT No Moon Set
Length of Visible Light 14h 06m
Length of Day
13h 07m
Tomorrow will be 2m 57s shorter.
First Quarter, 60% of the Moon is Illuminated
Today
First Quarter
Sep 8
Full
Sep 15
Last Quarter
Sep 24
New
Oct 1
First Quarter

Today's Extremes

State Highs State Lows

Community

WunderPhotos

Upload Photos

1,749,902 photos uploaded!

Nearby

Air Quality

  Air Quality AQ Index Pollutant
Yesterday Good
OZONE
Yesterday Good
PM2.5
Current Good
OZONE
Current Good
PM2.5
Wednesday Good
PM2.5
Wednesday Good
OZONE
Thursday Good
PM2.5
Thursday Good
OZONE

Snow Depth

Station Depth Elevation
No new snow has been reported.

Earthquake Activity

City Distance Mag. Time & Date
No recent earthquake activity has been reported nearby.
Minimum magnitude displayed is 2.5.

Coastal Water Temperatures

Place Temperature
No Stations Reporting

Nearby Weather Stations